Time;durP1;ratioP1;P1;durP2;ratioP2;P2;SDS_P1;SDS_P2;PMS_P1;PMS_P2;Temp;Humidity;BMP_temperature;BMP_pressure;BME280_temperature;BME280_humidity;BME280_pressure;Samples;Min_cycle;Max_cycle;Signal;HPM_P1;HPM_P2
2023/01/23 00:00:52;;;;;;;12.13;4.57;;;3.70;99.90;;;;;;4960522;28;20034;-60
2023/01/23 00:03:18;;;;;;;12.02;4.57;;;3.70;99.90;;;;;;4975369;28;20369;-59
2023/01/23 00:05:44;;;;;;;13.63;4.15;;;3.70;99.90;;;;;;4982786;28;20173;-61
2023/01/23 00:08:10;;;;;;;14.07;5.05;;;3.70;99.90;;;;;;4979535;28;20414;-60
2023/01/23 00:10:37;;;;;;;11.32;3.78;;;3.70;99.90;;;;;;4976789;28;20037;-61
2023/01/23 00:13:04;;;;;;;10.95;4.43;;;3.70;99.90;;;;;;4992764;28;20464;-59
2023/01/23 00:15:31;;;;;;;12.13;5.00;;;3.70;99.90;;;;;;4996955;28;20111;-60
2023/01/23 00:17:57;;;;;;;9.45;4.32;;;3.70;99.90;;;;;;4979722;28;20049;-59
2023/01/23 00:20:23;;;;;;;8.95;4.30;;;3.70;99.90;;;;;;4996229;28;20034;-59
2023/01/23 00:22:49;;;;;;;15.50;4.35;;;3.70;99.90;;;;;;4992849;28;20596;-60
2023/01/23 00:25:14;;;;;;;8.38;4.55;;;3.70;99.90;;;;;;4983072;28;20519;-59
2023/01/23 00:27:40;;;;;;;14.70;4.53;;;3.70;99.90;;;;;;5001021;28;20173;-60
2023/01/23 00:30:06;;;;;;;11.90;4.60;;;3.70;99.90;;;;;;4979389;28;20054;-60
2023/01/23 00:32:32;;;;;;;13.73;5.00;;;3.70;99.90;;;;;;4966101;28;20037;-60
2023/01/23 00:34:59;;;;;;;14.57;4.15;;;3.70;99.90;;;;;;4989720;28;20103;-60
2023/01/23 00:37:25;;;;;;;12.55;4.93;;;3.70;99.90;;;;;;4963342;28;20076;-60
2023/01/23 00:39:50;;;;;;;10.65;3.70;;;3.70;99.90;;;;;;4949363;28;20030;-60
2023/01/23 00:42:16;;;;;;;12.07;4.72;;;3.70;99.90;;;;;;4978459;28;20053;-60
2023/01/23 00:44:42;;;;;;;11.82;5.35;;;3.70;99.90;;;;;;4998841;28;20037;-60
2023/01/23 00:47:08;;;;;;;14.55;4.80;;;3.70;99.90;;;;;;4998584;28;20049;-60
2023/01/23 00:49:33;;;;;;;12.80;4.35;;;3.70;99.90;;;;;;4980765;28;20160;-60
2023/01/23 00:51:59;;;;;;;11.38;4.53;;;3.60;99.90;;;;;;4993393;28;20038;-61
2023/01/23 00:54:25;;;;;;;10.50;4.35;;;3.70;99.90;;;;;;4979661;28;20046;-59
2023/01/23 00:56:51;;;;;;;9.88;4.32;;;3.70;99.90;;;;;;4974914;28;20619;-60
2023/01/23 00:59:17;;;;;;;11.88;4.90;;;3.70;99.90;;;;;;4999312;28;20132;-60
2023/01/23 01:01:43;;;;;;;10.45;4.47;;;3.70;99.90;;;;;;4994663;28;20056;-61
2023/01/23 01:04:09;;;;;;;9.02;4.70;;;3.60;99.90;;;;;;4997884;28;20033;-60
2023/01/23 01:06:35;;;;;;;10.68;4.72;;;3.60;99.90;;;;;;4976303;28;20103;-61
2023/01/23 01:09:01;;;;;;;9.27;4.38;;;3.60;99.90;;;;;;4964381;28;20038;-60
2023/01/23 01:11:27;;;;;;;8.93;4.75;;;3.60;99.90;;;;;;4986380;28;20485;-60
2023/01/23 01:13:53;;;;;;;12.02;4.63;;;3.60;99.90;;;;;;4983099;28;20066;-60
2023/01/23 01:16:19;;;;;;;13.70;5.28;;;3.70;99.90;;;;;;4965992;28;20054;-61
2023/01/23 01:18:45;;;;;;;9.50;4.85;;;3.70;99.90;;;;;;4977514;28;20380;-61
2023/01/23 01:21:13;;;;;;;10.57;5.07;;;3.60;99.90;;;;;;5001981;28;20045;-59
2023/01/23 01:23:39;;;;;;;13.38;5.88;;;3.60;99.90;;;;;;4978548;28;20049;-60
2023/01/23 01:26:05;;;;;;;11.02;5.50;;;3.60;99.90;;;;;;5005358;28;20196;-59
2023/01/23 01:28:32;;;;;;;8.52;5.05;;;3.60;99.90;;;;;;4986778;28;20042;-61
2023/01/23 01:31:04;;;;;;;16.92;5.70;;;3.60;99.90;;;;;;4968577;28;20052;-61
2023/01/23 01:33:31;;;;;;;9.43;4.53;;;3.60;99.90;;;;;;4990320;28;20049;-60
2023/01/23 01:35:57;;;;;;;13.48;5.13;;;3.60;99.90;;;;;;5003284;28;20057;-59
2023/01/23 01:38:23;;;;;;;11.95;5.32;;;3.60;99.90;;;;;;4995668;28;20351;-61
2023/01/23 01:40:49;;;;;;;18.52;6.10;;;3.60;99.90;;;;;;4992282;28;20029;-61
2023/01/23 01:43:21;;;;;;;16.38;5.65;;;3.60;99.90;;;;;;4983736;28;20049;-61
2023/01/23 01:46:08;;;;;;;14.32;6.05;;;3.60;99.90;;;;;;4973595;28;20081;-61
2023/01/23 01:48:52;;;;;;;13.18;6.32;;;3.60;99.90;;;;;;5001536;28;20034;-60
2023/01/23 01:51:21;;;;;;;;;;;3.60;99.90;;;;;;4979030;28;20066;-59
2023/01/23 01:53:53;;;;;;;12.63;6.35;;;3.60;99.90;;;;;;4962739;28;20146;-59
2023/01/23 01:56:19;;;;;;;14.95;6.13;;;3.50;99.90;;;;;;4971991;28;20416;-60
2023/01/23 01:58:48;;;;;;;13.75;6.63;;;3.50;99.90;;;;;;4988687;28;20044;-61
2023/01/23 02:01:13;;;;;;;14.77;6.43;;;3.60;99.90;;;;;;4987518;28;20225;-61
2023/01/23 02:03:41;;;;;;;13.98;5.95;;;3.50;99.90;;;;;;4963532;28;20205;-60
2023/01/23 02:06:07;;;;;;;14.63;6.07;;;3.60;99.90;;;;;;4996394;28;20049;-59
2023/01/23 02:08:48;;;;;;;13.45;5.63;;;3.50;99.90;;;;;;4996268;28;20042;-60
2023/01/23 02:11:17;;;;;;;13.48;6.50;;;3.60;99.90;;;;;;4997163;28;20077;-61
2023/01/23 02:13:44;;;;;;;12.07;6.20;;;3.60;99.90;;;;;;4987104;28;20061;-61
2023/01/23 02:16:22;;;;;;;12.93;6.00;;;3.60;99.90;;;;;;4968094;28;20042;-61
2023/01/23 02:18:52;;;;;;;11.82;6.22;;;3.60;99.90;;;;;;4986500;28;20026;-60
2023/01/23 02:21:23;;;;;;;16.23;7.45;;;3.60;99.90;;;;;;5000014;28;20057;-59
2023/01/23 02:24:07;;;;;;;11.07;6.45;;;3.60;99.90;;;;;;5003443;28;20045;-61
2023/01/23 02:26:42;;;;;;;31.67;10.90;;;3.60;99.90;;;;;;5004649;28;20049;-61
2023/01/23 02:29:10;;;;;;;17.23;7.80;;;3.60;99.90;;;;;;5004341;28;20038;-61
2023/01/23 02:31:36;;;;;;;15.10;7.90;;;3.60;99.90;;;;;;4970926;28;20077;-61
2023/01/23 02:34:02;;;;;;;27.63;9.88;;;3.60;99.90;;;;;;5001907;28;20105;-60
2023/01/23 02:36:32;;;;;;;15.80;6.93;;;3.60;99.90;;;;;;4984396;28;20038;-60
2023/01/23 02:39:01;;;;;;;11.43;7.13;;;3.60;99.90;;;;;;4982984;28;20044;-60
2023/01/23 02:41:33;;;;;;;13.68;6.63;;;3.60;99.90;;;;;;4969380;28;20056;-60
2023/01/23 02:44:06;;;;;;;13.32;8.27;;;3.60;99.90;;;;;;4960479;28;20038;-59
2023/01/23 02:46:32;;;;;;;13.40;7.00;;;3.60;99.90;;;;;;4996834;28;20129;-59
2023/01/23 02:48:58;;;;;;;16.20;7.75;;;3.60;99.90;;;;;;4998748;28;20643;-59
2023/01/23 02:51:23;;;;;;;12.15;7.60;;;3.60;99.90;;;;;;4983730;28;20509;-61
2023/01/23 02:53:49;;;;;;;11.60;6.25;;;3.60;99.90;;;;;;4984783;28;20048;-61
2023/01/23 02:56:15;;;;;;;11.30;6.40;;;3.60;99.90;;;;;;4997696;28;20053;-61
2023/01/23 03:01:26;;;;;;;12.18;5.85;;;3.60;99.90;;;;;;5000434;28;20169;-61
2023/01/23 03:03:55;;;;;;;14.57;6.82;;;3.50;99.90;;;;;;4982842;28;20144;-60
2023/01/23 03:06:21;;;;;;;10.85;6.20;;;3.60;99.90;;;;;;4968716;28;20046;-60
2023/01/23 03:08:48;;;;;;;15.48;6.25;;;3.50;99.90;;;;;;4996331;28;20104;-60
2023/01/23 03:11:17;;;;;;;16.35;5.82;;;3.60;99.90;;;;;;4968070;28;20041;-60
2023/01/23 03:13:44;;;;;;;12.05;6.65;;;3.60;99.90;;;;;;4994185;28;20223;-61
2023/01/23 03:16:10;;;;;;;13.77;5.97;;;3.60;99.90;;;;;;4998151;28;20045;-60
2023/01/23 03:18:36;;;;;;;11.43;6.22;;;3.50;99.90;;;;;;4980499;28;20512;-61
2023/01/23 03:21:03;;;;;;;11.88;5.93;;;3.60;99.90;;;;;;5003113;28;20041;-61
2023/01/23 03:23:29;;;;;;;12.30;6.32;;;3.50;99.90;;;;;;5005453;28;20049;-61
2023/01/23 03:25:57;;;;;;;18.40;7.18;;;3.60;99.90;;;;;;5003368;28;20608;-60
2023/01/23 03:31:12;;;;;;;15.23;6.68;;;3.60;99.90;;;;;;4999998;28;20042;-60
2023/01/23 03:33:41;;;;;;;9.85;5.72;;;3.50;99.90;;;;;;4999693;28;20064;-60
2023/01/23 03:36:08;;;;;;;16.63;6.40;;;3.60;99.90;;;;;;5004487;28;20048;-61
2023/01/23 03:38:34;;;;;;;11.75;5.68;;;3.60;99.90;;;;;;5000542;28;20672;-60
2023/01/23 03:43:44;;;;;;;;;;;3.60;99.90;;;;;;4976003;28;20707;-60
2023/01/23 03:46:10;;;;;;;16.60;6.45;;;3.60;99.90;;;;;;4974145;28;20012;-60
2023/01/23 03:48:36;;;;;;;12.48;5.75;;;3.60;99.90;;;;;;4982142;28;20497;-58
2023/01/23 03:51:01;;;;;;;10.88;6.35;;;3.50;99.90;;;;;;5001588;28;20073;-60
2023/01/23 03:53:27;;;;;;;11.30;5.35;;;3.50;99.90;;;;;;4999495;28;20224;-59
2023/01/23 03:55:53;;;;;;;13.45;6.30;;;3.50;99.90;;;;;;4972811;28;20120;-60
2023/01/23 03:58:18;;;;;;;16.67;8.18;;;3.50;99.90;;;;;;4981615;28;20493;-59
2023/01/23 04:00:44;;;;;;;16.33;10.00;;;3.50;99.90;;;;;;4979349;28;20042;-61
2023/01/23 04:03:10;;;;;;;17.55;8.70;;;3.50;99.90;;;;;;4984298;28;20046;-60
2023/01/23 04:05:35;;;;;;;12.82;6.50;;;3.50;99.90;;;;;;4985730;28;20034;-59
2023/01/23 04:08:02;;;;;;;11.32;5.90;;;3.50;99.90;;;;;;4987438;28;20064;-60
2023/01/23 04:10:28;;;;;;;12.70;6.57;;;3.50;99.90;;;;;;4993757;28;20497;-60
2023/01/23 04:12:53;;;;;;;10.98;6.22;;;3.50;99.90;;;;;;4981836;28;20108;-59
2023/01/23 04:15:19;;;;;;;10.68;6.60;;;3.50;99.90;;;;;;4978489;28;20258;-60
2023/01/23 04:17:45;;;;;;;12.77;6.80;;;3.50;99.90;;;;;;4983684;28;20381;-60
2023/01/23 04:20:11;;;;;;;17.60;9.65;;;3.50;99.90;;;;;;4968003;28;20077;-58
2023/01/23 04:22:37;;;;;;;11.93;7.60;;;3.50;99.90;;;;;;4963400;28;20046;-60
2023/01/23 04:25:04;;;;;;;12.48;7.53;;;3.60;99.90;;;;;;4982131;28;20100;-60
2023/01/23 04:27:30;;;;;;;13.68;6.82;;;3.50;99.90;;;;;;4982515;28;20050;-60
2023/01/23 04:29:57;;;;;;;13.38;6.10;;;3.50;99.90;;;;;;4991516;28;20103;-59
2023/01/23 04:32:23;;;;;;;14.27;5.93;;;3.50;99.90;;;;;;4999154;28;20052;-60
2023/01/23 04:34:49;;;;;;;11.10;6.28;;;3.50;99.90;;;;;;4994160;28;20074;-60
2023/01/23 04:37:16;;;;;;;13.65;6.13;;;3.50;99.90;;;;;;5001511;28;20108;-59
2023/01/23 04:39:41;;;;;;;11.05;4.88;;;3.50;99.90;;;;;;4998830;28;20042;-60
2023/01/23 04:42:08;;;;;;;14.32;6.85;;;3.50;99.90;;;;;;5000332;28;20050;-60
2023/01/23 04:44:34;;;;;;;14.52;5.78;;;3.50;99.90;;;;;;4980690;28;20456;-60
2023/01/23 04:46:59;;;;;;;13.88;6.15;;;3.50;99.90;;;;;;4994535;28;20168;-59
2023/01/23 04:49:25;;;;;;;12.95;6.32;;;3.50;99.90;;;;;;4996874;28;20034;-60
2023/01/23 04:51:52;;;;;;;16.05;5.55;;;3.50;99.90;;;;;;4995815;28;20030;-60
2023/01/23 04:54:20;;;;;;;10.25;5.95;;;3.50;99.90;;;;;;4995088;28;20061;-61
2023/01/23 04:56:47;;;;;;;13.32;5.45;;;3.50;99.90;;;;;;4993212;28;20038;-60
2023/01/23 04:59:13;;;;;;;10.55;6.22;;;3.50;99.90;;;;;;4997942;28;20181;-60
2023/01/23 05:01:39;;;;;;;13.13;7.47;;;3.50;99.90;;;;;;4983206;28;20429;-60
2023/01/23 05:04:04;;;;;;;19.27;9.38;;;3.50;99.90;;;;;;5000394;28;20050;-61
2023/01/23 05:06:30;;;;;;;12.63;6.50;;;3.50;99.90;;;;;;4987103;28;20409;-60
2023/01/23 05:08:56;;;;;;;23.83;10.30;;;3.40;99.90;;;;;;4998948;28;20041;-61
2023/01/23 05:11:23;;;;;;;14.20;5.90;;;3.40;99.90;;;;;;4998804;28;21525;-60
2023/01/23 05:13:48;;;;;;;17.08;7.32;;;3.40;99.90;;;;;;5001317;28;20038;-61
2023/01/23 05:16:14;;;;;;;10.93;5.50;;;3.40;99.90;;;;;;4965321;28;20046;-60
2023/01/23 05:18:40;;;;;;;10.25;5.78;;;3.40;99.90;;;;;;5005022;28;20072;-59
2023/01/23 05:21:06;;;;;;;12.77;6.43;;;3.40;99.90;;;;;;4986677;28;20469;-61
2023/01/23 05:23:32;;;;;;;13.52;6.40;;;3.40;99.90;;;;;;4988557;28;20092;-60
2023/01/23 05:25:57;;;;;;;10.77;5.93;;;3.50;99.90;;;;;;4989572;28;20133;-60
2023/01/23 05:28:23;;;;;;;19.83;7.88;;;3.40;99.90;;;;;;4990691;28;20117;-60
2023/01/23 05:30:50;;;;;;;13.13;7.00;;;3.40;99.90;;;;;;4990283;28;20067;-60
2023/01/23 05:33:16;;;;;;;13.18;7.55;;;3.40;99.90;;;;;;4983776;28;20129;-60
2023/01/23 05:35:42;;;;;;;14.77;7.80;;;3.40;99.90;;;;;;4989736;28;20125;-61
2023/01/23 05:38:08;;;;;;;12.65;6.65;;;3.40;99.90;;;;;;5002590;28;20476;-61
2023/01/23 05:40:34;;;;;;;13.32;6.97;;;3.40;99.90;;;;;;4986817;28;20034;-61
2023/01/23 05:43:00;;;;;;;15.27;7.50;;;3.40;99.90;;;;;;4982007;28;20046;-60
2023/01/23 05:45:25;;;;;;;12.90;6.65;;;3.40;99.90;;;;;;4988799;28;20501;-60
2023/01/23 05:47:51;;;;;;;17.95;8.23;;;3.40;99.90;;;;;;4987289;28;20042;-59
2023/01/23 05:50:18;;;;;;;17.45;9.65;;;3.40;99.90;;;;;;4973462;28;20145;-60
2023/01/23 05:52:45;;;;;;;14.27;8.73;;;3.40;99.90;;;;;;4946429;28;20107;-60
2023/01/23 05:55:11;;;;;;;15.30;9.05;;;3.40;99.90;;;;;;4978026;28;20408;-60
2023/01/23 05:57:37;;;;;;;20.48;9.30;;;3.30;99.90;;;;;;4978156;28;20132;-61
2023/01/23 06:00:05;;;;;;;14.68;8.48;;;3.40;99.90;;;;;;4984803;28;20117;-60
2023/01/23 06:02:32;;;;;;;13.85;7.97;;;3.40;99.90;;;;;;4993893;28;20038;-60
2023/01/23 06:04:58;;;;;;;17.05;9.40;;;3.40;99.90;;;;;;4980304;28;20489;-61
2023/01/23 06:07:23;;;;;;;17.33;9.80;;;3.40;99.90;;;;;;4983088;28;20048;-61
2023/01/23 06:09:49;;;;;;;21.65;9.70;;;3.30;99.90;;;;;;4976688;28;20088;-60
2023/01/23 06:12:15;;;;;;;12.35;8.98;;;3.30;99.90;;;;;;4981957;28;20104;-60
2023/01/23 06:14:41;;;;;;;15.27;8.75;;;3.30;99.90;;;;;;4979024;28;20452;-61
2023/01/23 06:17:07;;;;;;;13.65;8.93;;;3.30;99.90;;;;;;4981808;28;20033;-60
2023/01/23 06:19:33;;;;;;;18.88;10.75;;;3.30;99.90;;;;;;4994983;28;20125;-61
2023/01/23 06:21:58;;;;;;;19.58;11.50;;;3.30;99.90;;;;;;4996679;28;20117;-61
2023/01/23 06:24:24;;;;;;;17.95;10.23;;;3.30;99.90;;;;;;4979556;28;20053;-60
2023/01/23 06:26:50;;;;;;;22.30;11.20;;;3.30;99.90;;;;;;4998812;28;20093;-60
2023/01/23 06:29:16;;;;;;;14.90;10.02;;;3.30;99.90;;;;;;4998545;28;20125;-60
2023/01/23 06:31:41;;;;;;;21.30;12.02;;;3.30;99.90;;;;;;4979846;28;20201;-61
2023/01/23 06:34:07;;;;;;;16.80;10.77;;;3.30;99.90;;;;;;4996393;28;20046;-60
2023/01/23 06:36:33;;;;;;;16.92;10.13;;;3.20;99.90;;;;;;4967185;28;20060;-61
2023/01/23 06:38:59;;;;;;;20.17;10.15;;;3.20;99.90;;;;;;5000073;28;20041;-60
2023/01/23 06:41:25;;;;;;;19.45;10.80;;;3.20;99.90;;;;;;4995268;28;20046;-60
2023/01/23 06:43:52;;;;;;;22.80;13.52;;;3.20;99.90;;;;;;5000334;28;20104;-60
2023/01/23 06:46:18;;;;;;;18.00;11.20;;;3.20;99.90;;;;;;4987258;28;20085;-60
2023/01/23 06:48:44;;;;;;;16.92;10.13;;;3.20;99.90;;;;;;5006124;23;20133;-56
2023/01/23 06:51:09;;;;;;;18.50;10.95;;;3.20;99.90;;;;;;5000237;28;20481;-56
2023/01/23 06:53:35;;;;;;;18.42;11.43;;;3.30;99.90;;;;;;4983598;28;20199;-56
2023/01/23 06:56:04;;;;;;;18.65;11.85;;;3.20;99.90;;;;;;4957456;28;20054;-57
2023/01/23 06:58:30;;;;;;;17.80;11.43;;;3.20;99.90;;;;;;4981088;28;20588;-56
2023/01/23 07:00:56;;;;;;;26.48;12.02;;;3.10;99.90;;;;;;4961257;28;20158;-56
2023/01/23 07:03:22;;;;;;;17.90;10.77;;;3.10;99.90;;;;;;4980419;28;20047;-58
2023/01/23 07:05:48;;;;;;;18.48;11.52;;;3.10;99.90;;;;;;4986219;28;20053;-57
2023/01/23 07:08:13;;;;;;;20.85;11.60;;;3.10;99.90;;;;;;4981526;28;20424;-58
2023/01/23 07:10:39;;;;;;;21.02;12.20;;;3.10;99.90;;;;;;4978631;28;20223;-57
2023/01/23 07:13:06;;;;;;;18.42;10.38;;;3.10;99.90;;;;;;4984832;28;20125;-58
2023/01/23 07:15:33;;;;;;;18.08;10.90;;;3.10;99.90;;;;;;4988672;28;20038;-58
2023/01/23 07:17:59;;;;;;;28.25;13.00;;;3.20;99.90;;;;;;4987560;28;20074;-57
2023/01/23 07:20:28;;;;;;;21.80;10.90;;;3.20;99.90;;;;;;4968506;28;20048;-56
2023/01/23 07:22:56;;;;;;;21.80;12.25;;;3.20;99.90;;;;;;4959633;28;20049;-57
2023/01/23 07:25:23;;;;;;;21.08;12.50;;;3.20;99.90;;;;;;4985980;28;20133;-58
2023/01/23 07:27:48;;;;;;;21.13;11.15;;;3.20;99.90;;;;;;4982505;28;20097;-57
2023/01/23 07:30:15;;;;;;;22.70;12.40;;;3.20;99.90;;;;;;4979207;28;20046;-56
2023/01/23 07:32:41;;;;;;;23.90;12.73;;;3.20;99.90;;;;;;4977034;28;20199;-57
2023/01/23 07:35:07;;;;;;;24.98;13.18;;;3.20;99.90;;;;;;4983206;28;20049;-57
2023/01/23 07:37:33;;;;;;;20.52;12.68;;;3.20;99.90;;;;;;4992946;28;20042;-54
2023/01/23 07:39:59;;;;;;;19.90;11.77;;;3.20;99.90;;;;;;4962400;28;20477;-57
2023/01/23 07:42:25;;;;;;;21.95;12.85;;;3.20;99.90;;;;;;4978543;28;20046;-57
2023/01/23 07:44:51;;;;;;;21.98;12.57;;;3.20;99.90;;;;;;4979851;28;20046;-57
2023/01/23 07:47:16;;;;;;;19.27;13.13;;;3.20;99.90;;;;;;4994544;28;20505;-57
2023/01/23 07:49:42;;;;;;;21.38;12.63;;;3.20;99.90;;;;;;4996041;28;20136;-56
2023/01/23 07:52:08;;;;;;;20.65;12.10;;;3.20;99.90;;;;;;4980753;28;20502;-58
2023/01/23 07:54:34;;;;;;;21.00;12.15;;;3.20;99.90;;;;;;4981530;28;20461;-56
2023/01/23 07:56:59;;;;;;;21.67;13.23;;;3.30;99.90;;;;;;4960269;28;20063;-57
2023/01/23 07:59:25;;;;;;;21.40;12.95;;;3.30;99.90;;;;;;4974799;28;20070;-56
2023/01/23 08:01:51;;;;;;;19.67;12.25;;;3.20;99.90;;;;;;4952133;28;20039;-57
2023/01/23 08:04:18;;;;;;;23.08;12.65;;;3.30;99.90;;;;;;4980092;28;20066;-57
2023/01/23 08:06:44;;;;;;;20.60;11.90;;;3.30;99.90;;;;;;4971798;28;20125;-57
2023/01/23 08:09:10;;;;;;;22.35;13.60;;;3.30;99.90;;;;;;4980089;28;20120;-56
2023/01/23 08:11:36;;;;;;;22.50;13.00;;;3.30;99.90;;;;;;4979612;28;20449;-55
2023/01/23 08:14:01;;;;;;;18.70;11.63;;;3.30;99.90;;;;;;4981434;28;20129;-57
2023/01/23 08:16:27;;;;;;;17.10;11.52;;;3.30;99.90;;;;;;4960981;28;20042;-57
2023/01/23 08:18:53;;;;;;;23.20;12.60;;;3.40;99.90;;;;;;4974402;28;20058;-58
2023/01/23 08:21:20;;;;;;;13.60;9.50;;;3.40;99.90;;;;;;4975899;28;20041;-58
2023/01/23 08:23:46;;;;;;;19.85;12.25;;;3.40;99.90;;;;;;4976326;28;20038;-55
2023/01/23 08:26:14;;;;;;;16.48;10.63;;;3.40;99.90;;;;;;4971176;28;20048;-56
2023/01/23 08:28:44;;;;;;;15.82;11.10;;;3.40;99.90;;;;;;4979405;28;20046;-56
2023/01/23 08:31:12;;;;;;;19.63;12.55;;;3.40;99.90;;;;;;4976822;28;20046;-56
2023/01/23 08:33:38;;;;;;;19.83;12.27;;;3.40;99.90;;;;;;4983771;28;20561;-56
2023/01/23 08:36:06;;;;;;;16.30;11.18;;;3.40;99.90;;;;;;4983349;28;20078;-55
2023/01/23 08:38:32;;;;;;;15.60;10.65;;;3.50;99.90;;;;;;4983234;28;20410;-55
2023/01/23 08:41:00;;;;;;;24.10;12.18;;;3.50;99.90;;;;;;4982822;28;20041;-55
2023/01/23 08:43:25;;;;;;;19.67;11.95;;;3.50;99.90;;;;;;4967056;28;20038;-56
2023/01/23 08:45:53;;;;;;;24.60;14.85;;;3.50;99.90;;;;;;4975215;28;20099;-54
2023/01/23 08:48:21;;;;;;;21.42;11.95;;;3.50;99.90;;;;;;4989566;28;20269;-55
2023/01/23 08:50:47;;;;;;;17.67;11.27;;;3.50;99.90;;;;;;4984606;28;20026;-57
2023/01/23 08:53:13;;;;;;;19.38;11.38;;;3.50;99.90;;;;;;4981638;28;20419;-56
2023/01/23 08:55:39;;;;;;;19.58;10.98;;;3.50;99.90;;;;;;4964667;28;20096;-55
2023/01/23 08:58:06;;;;;;;16.63;11.05;;;3.50;99.90;;;;;;4984919;28;20125;-57
2023/01/23 09:00:32;;;;;;;17.60;9.73;;;3.50;99.90;;;;;;4977319;28;20031;-57
2023/01/23 09:02:59;;;;;;;21.75;10.88;;;3.60;99.90;;;;;;4975720;28;20299;-53
2023/01/23 09:05:26;;;;;;;20.33;11.13;;;3.60;99.90;;;;;;4992611;28;20042;-57
2023/01/23 09:07:51;;;;;;;19.80;12.30;;;3.60;99.90;;;;;;4982561;28;20054;-55
2023/01/23 09:10:17;;;;;;;23.40;13.60;;;3.60;99.90;;;;;;4981246;28;20034;-57
2023/01/23 09:12:43;;;;;;;19.30;12.00;;;3.60;99.90;;;;;;4968450;28;20034;-56
2023/01/23 09:15:09;;;;;;;19.23;11.10;;;3.60;99.90;;;;;;4979026;28;20041;-56
2023/01/23 09:17:35;;;;;;;19.13;11.95;;;3.70;99.90;;;;;;4984349;28;20063;-57
2023/01/23 09:20:04;;;;;;;24.77;16.35;;;3.70;99.90;;;;;;4984504;28;20042;-53
2023/01/23 09:22:30;;;;;;;23.67;13.63;;;3.70;99.90;;;;;;4962509;28;20065;-55
2023/01/23 09:24:56;;;;;;;23.85;12.93;;;3.70;99.90;;;;;;4967400;28;20038;-54
2023/01/23 09:27:22;;;;;;;22.15;12.18;;;3.70;99.90;;;;;;4985042;28;20050;-56
2023/01/23 09:29:48;;;;;;;15.25;9.68;;;3.70;99.90;;;;;;4971172;28;20186;-56
2023/01/23 09:32:14;;;;;;;20.48;11.93;;;3.70;99.90;;;;;;4954663;28;20128;-57
2023/01/23 09:34:40;;;;;;;20.20;11.73;;;3.80;99.90;;;;;;4982489;28;20506;-56
2023/01/23 09:37:05;;;;;;;23.80;13.23;;;3.80;99.90;;;;;;4981209;28;20030;-57
2023/01/23 09:39:31;;;;;;;18.38;11.38;;;3.80;99.90;;;;;;4981254;28;20046;-58
2023/01/23 09:41:58;;;;;;;22.58;12.45;;;3.80;99.90;;;;;;4978018;28;20054;-56
2023/01/23 09:44:34;;;;;;;20.58;11.77;;;3.80;99.90;;;;;;4996677;28;20081;-56
2023/01/23 09:47:59;;;;;;;22.85;12.02;;;3.90;99.90;;;;;;4963831;28;20045;-56
2023/01/23 09:50:43;;;;;;;18.87;11.57;;;3.80;99.90;;;;;;4934507;28;20042;-57
2023/01/23 09:53:15;;;;;;;19.02;10.80;;;3.80;99.90;;;;;;4982871;28;20385;-56
2023/01/23 09:55:44;;;;;;;17.88;10.73;;;3.80;99.90;;;;;;4961096;28;20502;-58
2023/01/23 09:58:42;;;;;;;22.65;11.77;;;3.80;99.90;;;;;;4986825;28;20041;-57
2023/01/23 10:01:14;;;;;;;16.17;9.65;;;3.80;99.90;;;;;;4897706;28;20050;-56
2023/01/23 10:03:40;;;;;;;14.95;10.30;;;3.80;99.90;;;;;;4989999;28;20509;-57
2023/01/23 10:06:18;;;;;;;16.92;10.52;;;3.80;99.90;;;;;;4982639;28;20081;-57
2023/01/23 10:09:08;;;;;;;15.73;9.48;;;3.90;99.90;;;;;;4970799;28;20078;-56
2023/01/23 10:11:41;;;;;;;16.00;9.73;;;3.90;99.90;;;;;;4961059;28;20072;-57
2023/01/23 10:14:26;;;;;;;13.90;9.25;;;3.90;99.90;;;;;;4975417;28;20039;-58
2023/01/23 10:16:55;;;;;;;14.13;8.95;;;3.90;99.90;;;;;;4977976;28;20042;-57
2023/01/23 10:20:15;;;;;;;13.25;8.23;;;3.90;99.90;;;;;;4981012;28;20136;-57
2023/01/23 10:22:58;;;;;;;15.63;8.85;;;3.90;99.90;;;;;;4925252;29;20130;-55
2023/01/23 10:25:31;;;;;;;12.05;8.40;;;4.00;99.90;;;;;;4977827;28;20061;-57
2023/01/23 10:28:17;;;;;;;14.55;9.10;;;4.00;99.90;;;;;;4985988;28;20042;-56
2023/01/23 10:30:47;;;;;;;11.73;8.30;;;4.10;99.90;;;;;;4951256;28;20077;-56
2023/01/23 10:33:18;;;;;;;11.48;7.93;;;4.10;99.90;;;;;;4976143;28;20105;-57
2023/01/23 10:36:00;;;;;;;13.23;8.70;;;4.10;99.90;;;;;;4979153;28;20133;-56
2023/01/23 10:38:30;;;;;;;10.77;7.30;;;4.10;99.90;;;;;;4984151;28;20045;-57
2023/01/23 10:41:14;;;;;;;12.70;6.97;;;4.10;99.90;;;;;;4999269;28;20693;-58
2023/01/23 10:43:46;;;;;;;12.10;8.85;;;4.20;99.90;;;;;;4981022;28;20045;-57
2023/01/23 10:46:13;;;;;;;10.63;6.53;;;4.20;99.90;;;;;;4981577;28;20035;-57
2023/01/23 10:48:43;;;;;;;11.57;6.72;;;4.20;99.90;;;;;;4972004;28;20053;-58
2023/01/23 10:51:38;;;;;;;11.20;7.72;;;4.20;99.90;;;;;;4983251;28;20524;-57
2023/01/23 10:54:25;;;;;;;12.35;7.50;;;4.30;99.90;;;;;;5001951;28;20050;-57
2023/01/23 10:56:58;;;;;;;6.93;5.00;;;4.30;99.90;;;;;;4999066;28;20038;-58
2023/01/23 10:59:37;;;;;;;8.40;6.10;;;4.30;99.90;;;;;;4980189;28;20494;-58
2023/01/23 11:02:12;;;;;;;9.57;5.32;;;4.40;99.90;;;;;;4972105;28;20401;-56
2023/01/23 11:04:38;;;;;;;6.70;4.60;;;4.40;99.90;;;;;;4998010;28;20042;-58
2023/01/23 11:07:06;;;;;;;7.50;5.07;;;4.40;99.90;;;;;;4985327;28;20520;-57
2023/01/23 11:09:32;;;;;;;8.10;5.18;;;4.50;99.90;;;;;;4981016;28;20046;-56
2023/01/23 11:12:05;;;;;;;9.05;4.85;;;4.50;99.90;;;;;;4990122;28;20092;-57
2023/01/23 11:14:31;;;;;;;7.35;4.43;;;4.50;99.90;;;;;;4966318;28;20105;-56
2023/01/23 11:17:13;;;;;;;5.03;3.50;;;4.60;99.90;;;;;;4965962;28;20043;-57
2023/01/23 11:19:40;;;;;;;6.80;4.20;;;4.60;99.90;;;;;;4957842;28;20402;-54
2023/01/23 11:22:23;;;;;;;5.22;3.95;;;4.60;99.90;;;;;;4987268;28;20203;-56
2023/01/23 11:24:49;;;;;;;6.38;3.90;;;4.60;99.90;;;;;;4972941;28;20042;-56
2023/01/23 11:27:17;;;;;;;5.22;3.30;;;4.60;99.90;;;;;;4975324;28;20073;-57
2023/01/23 11:30:07;;;;;;;5.68;3.35;;;4.60;99.90;;;;;;4980276;28;20049;-56
2023/01/23 11:32:42;;;;;;;4.57;2.83;;;4.60;99.90;;;;;;4974565;28;20038;-55
2023/01/23 11:35:15;;;;;;;3.38;2.53;;;4.60;99.90;;;;;;4973243;28;20476;-56
2023/01/23 11:37:42;;;;;;;4.00;2.70;;;4.60;99.90;;;;;;4973285;28;20443;-56
2023/01/23 11:40:26;;;;;;;4.10;2.75;;;4.60;99.90;;;;;;4981350;28;20030;-57
2023/01/23 11:42:54;;;;;;;3.55;2.30;;;4.60;99.90;;;;;;4977990;28;20510;-56
2023/01/23 11:45:42;;;;;;;3.70;2.35;;;4.60;99.90;;;;;;4961100;28;20054;-57
2023/01/23 11:48:33;;;;;;;4.93;2.50;;;4.60;99.90;;;;;;4989260;28;20043;-55
2023/01/23 11:51:15;;;;;;;4.15;2.75;;;4.60;99.90;;;;;;4966579;28;20050;-56
2023/01/23 11:54:00;;;;;;;3.17;2.17;;;4.60;99.90;;;;;;4973197;28;20893;-56
2023/01/23 11:56:52;;;;;;;3.42;2.03;;;4.60;99.90;;;;;;4972340;28;20065;-57
2023/01/23 11:59:49;;;;;;;7.47;4.85;;;4.50;99.90;;;;;;4974356;28;20065;-57
2023/01/23 12:02:17;;;;;;;6.65;4.68;;;4.60;99.90;;;;;;4986349;28;20101;-57
2023/01/23 12:04:52;;;;;;;5.90;4.30;;;4.60;99.90;;;;;;4972845;28;20050;-57
2023/01/23 12:07:20;;;;;;;6.93;5.05;;;4.60;99.90;;;;;;4972432;28;20054;-58
2023/01/23 12:09:57;;;;;;;5.28;4.68;;;4.60;99.90;;;;;;4972457;28;20069;-56
2023/01/23 12:12:57;;;;;;;4.78;3.85;;;4.60;99.90;;;;;;4984192;28;20190;-57
2023/01/23 12:15:53;;;;;;;6.18;4.13;;;4.50;99.90;;;;;;4978163;28;20512;-56
2023/01/23 12:18:22;;;;;;;5.53;4.40;;;4.50;99.90;;;;;;4974807;28;20042;-56
2023/01/23 12:20:57;;;;;;;6.00;4.68;;;4.50;99.90;;;;;;4970488;28;20058;-57
2023/01/23 12:23:47;;;;;;;5.97;4.32;;;4.50;99.90;;;;;;4980421;28;20077;-57
2023/01/23 12:26:21;;;;;;;6.40;5.30;;;4.50;99.90;;;;;;4966469;28;20220;-54
2023/01/23 12:29:29;;;;;;;6.90;5.22;;;4.50;99.90;;;;;;4990667;28;20042;-57
2023/01/23 12:32:33;;;;;;;4.93;3.97;;;4.60;99.90;;;;;;4966569;28;20116;-57
2023/01/23 12:35:04;;;;;;;6.30;4.13;;;4.60;99.90;;;;;;4987868;28;20054;-57
2023/01/23 12:37:37;;;;;;;6.18;4.30;;;4.60;99.90;;;;;;4977135;28;20405;-57
2023/01/23 12:40:32;;;;;;;5.90;4.00;;;4.60;99.90;;;;;;4972589;28;20505;-57
2023/01/23 12:43:04;;;;;;;;;;;4.60;99.90;;;;;;4976012;28;20078;-56
2023/01/23 12:45:32;;;;;;;5.65;4.22;;;4.60;99.90;;;;;;4988555;28;20365;-55
2023/01/23 12:50:49;;;;;;;5.97;4.78;;;4.60;99.90;;;;;;4995612;28;20041;-58
2023/01/23 12:53:17;;;;;;;20.02;10.57;;;4.60;99.90;;;;;;4980498;28;20540;-57
2023/01/23 12:56:01;;;;;;;20.75;10.30;;;4.60;99.90;;;;;;4971530;28;20121;-58
2023/01/23 12:58:31;;;;;;;18.00;9.57;;;4.50;99.90;;;;;;4984631;28;20401;-58
2023/01/23 13:01:00;;;;;;;44.00;19.08;;;4.50;99.90;;;;;;4972176;28;20210;-57
2023/01/23 13:03:38;;;;;;;40.72;17.17;;;4.50;99.90;;;;;;4972785;28;20066;-57
2023/01/23 13:07:05;;;;;;;63.88;25.08;;;4.40;99.90;;;;;;4977736;28;20053;-57
2023/01/23 13:09:42;;;;;;;10.15;6.53;;;4.40;99.90;;;;;;4923787;28;20061;-57